sensor_id;sensor_type;location;lat;lon;timestamp;P1;durP1;ratioP1;P2;durP2;ratioP2
18677;SDS011;9469;51.114;13.914;2024-01-10T00:04:34;63.90;;;31.77;;
18677;SDS011;9469;51.114;13.914;2024-01-10T00:09:42;66.33;;;33.70;;
18677;SDS011;9469;51.114;13.914;2024-01-10T00:14:47;68.30;;;32.43;;
18677;SDS011;9469;51.114;13.914;2024-01-10T00:19:55;68.80;;;31.00;;
18677;SDS011;9469;51.114;13.914;2024-01-10T00:25:00;67.27;;;33.77;;
18677;SDS011;9469;51.114;13.914;2024-01-10T00:30:09;64.60;;;32.57;;
18677;SDS011;9469;51.114;13.914;2024-01-10T00:35:18;67.37;;;32.03;;
18677;SDS011;9469;51.114;13.914;2024-01-10T00:40:25;59.83;;;31.27;;
18677;SDS011;9469;51.114;13.914;2024-01-10T00:45:30;64.40;;;31.33;;
18677;SDS011;9469;51.114;13.914;2024-01-10T00:50:39;65.63;;;32.90;;
18677;SDS011;9469;51.114;13.914;2024-01-10T00:55:45;63.50;;;30.30;;
18677;SDS011;9469;51.114;13.914;2024-01-10T01:00:51;62.57;;;31.37;;
18677;SDS011;9469;51.114;13.914;2024-01-10T01:05:59;64.13;;;31.30;;
18677;SDS011;9469;51.114;13.914;2024-01-10T01:11:04;70.80;;;31.33;;
18677;SDS011;9469;51.114;13.914;2024-01-10T01:16:10;67.77;;;31.60;;
18677;SDS011;9469;51.114;13.914;2024-01-10T01:21:18;61.07;;;31.07;;
18677;SDS011;9469;51.114;13.914;2024-01-10T01:26:23;58.50;;;30.67;;
18677;SDS011;9469;51.114;13.914;2024-01-10T01:31:28;59.40;;;30.57;;
18677;SDS011;9469;51.114;13.914;2024-01-10T01:36:36;65.57;;;30.97;;
18677;SDS011;9469;51.114;13.914;2024-01-10T01:41:42;54.77;;;30.80;;
18677;SDS011;9469;51.114;13.914;2024-01-10T01:46:47;67.07;;;33.07;;
18677;SDS011;9469;51.114;13.914;2024-01-10T01:51:56;66.13;;;28.47;;
18677;SDS011;9469;51.114;13.914;2024-01-10T01:57:01;62.60;;;30.27;;
18677;SDS011;9469;51.114;13.914;2024-01-10T02:02:07;59.87;;;31.90;;
18677;SDS011;9469;51.114;13.914;2024-01-10T02:07:17;64.17;;;28.13;;
18677;SDS011;9469;51.114;13.914;2024-01-10T02:12:22;62.00;;;27.37;;
18677;SDS011;9469;51.114;13.914;2024-01-10T02:17:28;58.27;;;29.90;;
18677;SDS011;9469;51.114;13.914;2024-01-10T02:22:39;46.70;;;25.43;;
18677;SDS011;9469;51.114;13.914;2024-01-10T02:27:47;52.33;;;26.00;;
18677;SDS011;9469;51.114;13.914;2024-01-10T02:32:52;49.10;;;25.63;;
18677;SDS011;9469;51.114;13.914;2024-01-10T02:37:58;43.70;;;24.37;;
18677;SDS011;9469;51.114;13.914;2024-01-10T02:43:06;50.07;;;25.43;;
18677;SDS011;9469;51.114;13.914;2024-01-10T02:48:14;47.67;;;24.20;;
18677;SDS011;9469;51.114;13.914;2024-01-10T02:53:19;49.20;;;26.33;;
18677;SDS011;9469;51.114;13.914;2024-01-10T02:58:27;51.37;;;24.37;;
18677;SDS011;9469;51.114;13.914;2024-01-10T03:03:32;52.67;;;24.57;;
18677;SDS011;9469;51.114;13.914;2024-01-10T03:08:38;48.77;;;23.03;;
18677;SDS011;9469;51.114;13.914;2024-01-10T03:13:46;58.60;;;27.37;;
18677;SDS011;9469;51.114;13.914;2024-01-10T03:18:51;51.57;;;27.87;;
18677;SDS011;9469;51.114;13.914;2024-01-10T03:23:58;54.63;;;26.20;;
18677;SDS011;9469;51.114;13.914;2024-01-10T03:29:10;52.47;;;26.47;;
18677;SDS011;9469;51.114;13.914;2024-01-10T03:34:15;48.47;;;25.60;;
18677;SDS011;9469;51.114;13.914;2024-01-10T03:39:20;59.50;;;28.03;;
18677;SDS011;9469;51.114;13.914;2024-01-10T03:44:28;52.03;;;28.43;;
18677;SDS011;9469;51.114;13.914;2024-01-10T03:49:34;59.20;;;29.30;;
18677;SDS011;9469;51.114;13.914;2024-01-10T03:54:39;48.20;;;23.57;;
18677;SDS011;9469;51.114;13.914;2024-01-10T03:59:48;58.90;;;25.47;;
18677;SDS011;9469;51.114;13.914;2024-01-10T04:04:53;51.63;;;26.40;;
18677;SDS011;9469;51.114;13.914;2024-01-10T04:09:58;51.47;;;25.87;;
18677;SDS011;9469;51.114;13.914;2024-01-10T04:15:07;50.57;;;26.83;;
18677;SDS011;9469;51.114;13.914;2024-01-10T04:20:13;52.47;;;27.20;;
18677;SDS011;9469;51.114;13.914;2024-01-10T04:25:19;49.43;;;24.83;;
18677;SDS011;9469;51.114;13.914;2024-01-10T04:30:28;55.20;;;31.93;;
18677;SDS011;9469;51.114;13.914;2024-01-10T04:35:34;50.33;;;25.63;;
18677;SDS011;9469;51.114;13.914;2024-01-10T04:40:40;44.67;;;24.00;;
18677;SDS011;9469;51.114;13.914;2024-01-10T04:45:48;41.20;;;21.80;;
18677;SDS011;9469;51.114;13.914;2024-01-10T04:50:53;40.67;;;21.63;;
18677;SDS011;9469;51.114;13.914;2024-01-10T04:55:59;42.73;;;21.50;;
18677;SDS011;9469;51.114;13.914;2024-01-10T05:01:10;43.63;;;22.43;;
18677;SDS011;9469;51.114;13.914;2024-01-10T05:06:17;43.83;;;24.87;;
18677;SDS011;9469;51.114;13.914;2024-01-10T05:11:23;43.13;;;20.53;;
18677;SDS011;9469;51.114;13.914;2024-01-10T05:16:31;40.07;;;21.20;;
18677;SDS011;9469;51.114;13.914;2024-01-10T05:21:37;44.23;;;18.83;;
18677;SDS011;9469;51.114;13.914;2024-01-10T05:26:42;39.13;;;22.77;;
18677;SDS011;9469;51.114;13.914;2024-01-10T05:31:51;33.90;;;18.13;;
18677;SDS011;9469;51.114;13.914;2024-01-10T05:36:56;35.97;;;20.67;;
18677;SDS011;9469;51.114;13.914;2024-01-10T05:42:01;32.77;;;18.00;;
18677;SDS011;9469;51.114;13.914;2024-01-10T05:47:09;36.47;;;19.63;;
18677;SDS011;9469;51.114;13.914;2024-01-10T05:52:16;35.03;;;19.10;;
18677;SDS011;9469;51.114;13.914;2024-01-10T05:57:24;35.97;;;20.70;;
18677;SDS011;9469;51.114;13.914;2024-01-10T06:02:34;34.47;;;18.93;;
18677;SDS011;9469;51.114;13.914;2024-01-10T06:07:40;40.60;;;21.47;;
18677;SDS011;9469;51.114;13.914;2024-01-10T06:12:46;35.83;;;17.50;;
18677;SDS011;9469;51.114;13.914;2024-01-10T06:17:55;33.27;;;18.57;;
18677;SDS011;9469;51.114;13.914;2024-01-10T06:23:00;32.67;;;17.93;;
18677;SDS011;9469;51.114;13.914;2024-01-10T06:28:06;33.20;;;18.00;;
18677;SDS011;9469;51.114;13.914;2024-01-10T06:33:14;33.20;;;19.13;;
18677;SDS011;9469;51.114;13.914;2024-01-10T06:38:22;37.70;;;16.77;;
18677;SDS011;9469;51.114;13.914;2024-01-10T06:43:27;36.20;;;19.63;;
18677;SDS011;9469;51.114;13.914;2024-01-10T06:48:35;37.57;;;18.60;;
18677;SDS011;9469;51.114;13.914;2024-01-10T06:53:43;41.73;;;21.70;;
18677;SDS011;9469;51.114;13.914;2024-01-10T06:58:50;41.30;;;20.47;;
18677;SDS011;9469;51.114;13.914;2024-01-10T07:03:59;43.80;;;25.43;;
18677;SDS011;9469;51.114;13.914;2024-01-10T07:09:06;36.43;;;18.83;;
18677;SDS011;9469;51.114;13.914;2024-01-10T07:14:11;42.40;;;20.90;;
18677;SDS011;9469;51.114;13.914;2024-01-10T07:19:21;50.10;;;20.40;;
18677;SDS011;9469;51.114;13.914;2024-01-10T07:24:27;41.20;;;21.50;;
18677;SDS011;9469;51.114;13.914;2024-01-10T07:29:32;41.90;;;20.67;;
18677;SDS011;9469;51.114;13.914;2024-01-10T07:34:44;43.23;;;20.30;;
18677;SDS011;9469;51.114;13.914;2024-01-10T07:39:49;39.33;;;20.77;;
18677;SDS011;9469;51.114;13.914;2024-01-10T07:44:55;56.43;;;22.30;;
18677;SDS011;9469;51.114;13.914;2024-01-10T07:50:04;52.67;;;21.37;;
18677;SDS011;9469;51.114;13.914;2024-01-10T07:55:10;33.67;;;20.27;;
18677;SDS011;9469;51.114;13.914;2024-01-10T08:00:20;40.10;;;19.90;;
18677;SDS011;9469;51.114;13.914;2024-01-10T08:05:28;35.50;;;17.43;;
18677;SDS011;9469;51.114;13.914;2024-01-10T08:10:47;27.43;;;15.90;;
18677;SDS011;9469;51.114;13.914;2024-01-10T08:15:54;33.90;;;17.73;;
18677;SDS011;9469;51.114;13.914;2024-01-10T08:21:02;31.53;;;15.57;;
18677;SDS011;9469;51.114;13.914;2024-01-10T08:26:13;36.23;;;16.80;;
18677;SDS011;9469;51.114;13.914;2024-01-10T08:31:21;33.83;;;15.67;;
18677;SDS011;9469;51.114;13.914;2024-01-10T08:36:36;35.17;;;16.53;;
18677;SDS011;9469;51.114;13.914;2024-01-10T08:41:42;35.83;;;16.80;;
18677;SDS011;9469;51.114;13.914;2024-01-10T08:46:47;32.13;;;17.20;;
18677;SDS011;9469;51.114;13.914;2024-01-10T08:51:59;28.60;;;14.57;;
18677;SDS011;9469;51.114;13.914;2024-01-10T08:57:04;39.60;;;17.77;;
18677;SDS011;9469;51.114;13.914;2024-01-10T09:02:18;30.77;;;16.43;;
18677;SDS011;9469;51.114;13.914;2024-01-10T09:07:28;32.97;;;17.43;;
18677;SDS011;9469;51.114;13.914;2024-01-10T09:12:37;44.67;;;17.80;;
18677;SDS011;9469;51.114;13.914;2024-01-10T09:17:49;30.03;;;16.33;;
18677;SDS011;9469;51.114;13.914;2024-01-10T09:23:04;29.30;;;16.47;;
18677;SDS011;9469;51.114;13.914;2024-01-10T09:28:15;23.70;;;13.40;;
18677;SDS011;9469;51.114;13.914;2024-01-10T09:33:24;26.17;;;15.07;;
18677;SDS011;9469;51.114;13.914;2024-01-10T09:38:32;22.30;;;12.67;;
18677;SDS011;9469;51.114;13.914;2024-01-10T09:43:44;19.97;;;12.13;;
18677;SDS011;9469;51.114;13.914;2024-01-10T09:48:49;19.00;;;11.57;;
18677;SDS011;9469;51.114;13.914;2024-01-10T09:54:08;23.47;;;13.63;;
18677;SDS011;9469;51.114;13.914;2024-01-10T09:59:32;23.00;;;12.93;;
18677;SDS011;9469;51.114;13.914;2024-01-10T10:10:06;10.73;;;7.50;;
18677;SDS011;9469;51.114;13.914;2024-01-10T10:15:18;11.13;;;6.50;;
18677;SDS011;9469;51.114;13.914;2024-01-10T10:20:30;14.20;;;7.63;;
18677;SDS011;9469;51.114;13.914;2024-01-10T10:25:42;9.40;;;6.50;;
18677;SDS011;9469;51.114;13.914;2024-01-10T10:30:49;12.00;;;7.40;;
18677;SDS011;9469;51.114;13.914;2024-01-10T10:35:59;14.33;;;8.03;;
18677;SDS011;9469;51.114;13.914;2024-01-10T10:41:09;8.70;;;6.50;;
18677;SDS011;9469;51.114;13.914;2024-01-10T10:46:15;11.37;;;7.23;;
18677;SDS011;9469;51.114;13.914;2024-01-10T10:51:23;12.20;;;7.03;;
18677;SDS011;9469;51.114;13.914;2024-01-10T10:56:38;12.70;;;7.33;;
18677;SDS011;9469;51.114;13.914;2024-01-10T11:01:48;13.37;;;7.50;;
18677;SDS011;9469;51.114;13.914;2024-01-10T11:06:59;13.07;;;7.57;;
18677;SDS011;9469;51.114;13.914;2024-01-10T11:12:12;11.23;;;7.00;;
18677;SDS011;9469;51.114;13.914;2024-01-10T11:17:38;10.27;;;5.97;;
18677;SDS011;9469;51.114;13.914;2024-01-10T11:23:08;10.60;;;6.40;;
18677;SDS011;9469;51.114;13.914;2024-01-10T11:28:34;10.77;;;6.70;;
18677;SDS011;9469;51.114;13.914;2024-01-10T11:33:45;8.93;;;6.20;;
18677;SDS011;9469;51.114;13.914;2024-01-10T11:38:58;11.60;;;6.27;;
18677;SDS011;9469;51.114;13.914;2024-01-10T11:49:39;9.20;;;6.40;;
18677;SDS011;9469;51.114;13.914;2024-01-10T11:54:46;9.43;;;7.43;;
18677;SDS011;9469;51.114;13.914;2024-01-10T11:59:56;10.10;;;6.13;;
18677;SDS011;9469;51.114;13.914;2024-01-10T12:05:08;8.03;;;6.00;;
18677;SDS011;9469;51.114;13.914;2024-01-10T12:10:19;9.67;;;5.53;;
18677;SDS011;9469;51.114;13.914;2024-01-10T12:15:27;7.90;;;5.73;;
18677;SDS011;9469;51.114;13.914;2024-01-10T12:20:34;7.37;;;5.47;;
18677;SDS011;9469;51.114;13.914;2024-01-10T12:25:47;11.33;;;5.40;;
18677;SDS011;9469;51.114;13.914;2024-01-10T12:30:58;7.43;;;5.47;;
18677;SDS011;9469;51.114;13.914;2024-01-10T12:36:16;8.83;;;5.13;;
18677;SDS011;9469;51.114;13.914;2024-01-10T12:41:31;8.63;;;5.93;;
18677;SDS011;9469;51.114;13.914;2024-01-10T12:46:53;7.30;;;5.43;;
18677;SDS011;9469;51.114;13.914;2024-01-10T12:52:02;7.17;;;5.87;;
18677;SDS011;9469;51.114;13.914;2024-01-10T12:57:13;8.67;;;6.23;;
18677;SDS011;9469;51.114;13.914;2024-01-10T13:02:21;19.70;;;6.57;;
18677;SDS011;9469;51.114;13.914;2024-01-10T13:07:26;7.53;;;5.23;;
18677;SDS011;9469;51.114;13.914;2024-01-10T13:12:39;8.23;;;5.07;;
18677;SDS011;9469;51.114;13.914;2024-01-10T13:17:48;6.53;;;5.40;;
18677;SDS011;9469;51.114;13.914;2024-01-10T13:22:53;8.70;;;5.10;;
18677;SDS011;9469;51.114;13.914;2024-01-10T13:28:00;7.37;;;5.63;;
18677;SDS011;9469;51.114;13.914;2024-01-10T13:33:10;7.30;;;5.50;;
18677;SDS011;9469;51.114;13.914;2024-01-10T13:38:15;8.40;;;5.63;;
18677;SDS011;9469;51.114;13.914;2024-01-10T13:43:21;6.37;;;4.60;;
18677;SDS011;9469;51.114;13.914;2024-01-10T13:48:29;9.23;;;5.30;;
18677;SDS011;9469;51.114;13.914;2024-01-10T13:53:34;6.30;;;4.77;;
18677;SDS011;9469;51.114;13.914;2024-01-10T13:58:39;10.33;;;4.63;;
18677;SDS011;9469;51.114;13.914;2024-01-10T14:03:48;14.53;;;7.13;;
18677;SDS011;9469;51.114;13.914;2024-01-10T14:08:53;20.50;;;10.43;;
18677;SDS011;9469;51.114;13.914;2024-01-10T14:13:59;19.47;;;10.57;;
18677;SDS011;9469;51.114;13.914;2024-01-10T14:19:08;16.90;;;10.20;;
18677;SDS011;9469;51.114;13.914;2024-01-10T14:24:14;18.97;;;12.23;;
18677;SDS011;9469;51.114;13.914;2024-01-10T14:29:22;21.90;;;12.07;;
18677;SDS011;9469;51.114;13.914;2024-01-10T14:34:31;24.40;;;14.57;;
18677;SDS011;9469;51.114;13.914;2024-01-10T14:39:40;57.40;;;26.23;;
18677;SDS011;9469;51.114;13.914;2024-01-10T14:44:46;22.10;;;14.13;;
18677;SDS011;9469;51.114;13.914;2024-01-10T14:49:55;31.87;;;15.10;;
18677;SDS011;9469;51.114;13.914;2024-01-10T14:55:04;26.97;;;14.83;;
18677;SDS011;9469;51.114;13.914;2024-01-10T15:00:11;28.13;;;16.67;;
18677;SDS011;9469;51.114;13.914;2024-01-10T15:05:21;32.83;;;19.40;;
18677;SDS011;9469;51.114;13.914;2024-01-10T15:10:30;35.23;;;21.27;;
18677;SDS011;9469;51.114;13.914;2024-01-10T15:15:36;35.77;;;20.53;;
18677;SDS011;9469;51.114;13.914;2024-01-10T15:20:46;40.50;;;22.03;;
18677;SDS011;9469;51.114;13.914;2024-01-10T15:25:52;40.90;;;22.70;;
18677;SDS011;9469;51.114;13.914;2024-01-10T15:30:58;44.77;;;22.83;;
18677;SDS011;9469;51.114;13.914;2024-01-10T15:36:06;37.10;;;22.63;;
18677;SDS011;9469;51.114;13.914;2024-01-10T15:41:12;86.33;;;42.23;;
18677;SDS011;9469;51.114;13.914;2024-01-10T15:46:18;45.27;;;26.60;;
18677;SDS011;9469;51.114;13.914;2024-01-10T15:51:28;45.70;;;27.87;;
18677;SDS011;9469;51.114;13.914;2024-01-10T15:56:35;56.57;;;28.27;;
18677;SDS011;9469;51.114;13.914;2024-01-10T16:01:43;46.73;;;27.33;;
18677;SDS011;9469;51.114;13.914;2024-01-10T16:06:51;47.10;;;24.47;;
18677;SDS011;9469;51.114;13.914;2024-01-10T16:11:57;59.73;;;42.10;;
18677;SDS011;9469;51.114;13.914;2024-01-10T16:17:03;51.70;;;27.03;;
18677;SDS011;9469;51.114;13.914;2024-01-10T16:22:11;53.07;;;26.83;;
18677;SDS011;9469;51.114;13.914;2024-01-10T16:27:18;56.20;;;29.97;;
18677;SDS011;9469;51.114;13.914;2024-01-10T16:32:26;56.53;;;28.73;;
18677;SDS011;9469;51.114;13.914;2024-01-10T16:37:34;47.10;;;27.33;;
18677;SDS011;9469;51.114;13.914;2024-01-10T16:42:39;53.67;;;30.27;;
18677;SDS011;9469;51.114;13.914;2024-01-10T16:47:47;57.80;;;28.90;;
18677;SDS011;9469;51.114;13.914;2024-01-10T16:52:55;60.10;;;31.10;;
18677;SDS011;9469;51.114;13.914;2024-01-10T16:58:05;69.87;;;33.90;;
18677;SDS011;9469;51.114;13.914;2024-01-10T17:03:10;61.37;;;31.20;;
18677;SDS011;9469;51.114;13.914;2024-01-10T17:08:18;61.00;;;31.00;;
18677;SDS011;9469;51.114;13.914;2024-01-10T17:13:24;105.43;;;53.33;;
18677;SDS011;9469;51.114;13.914;2024-01-10T17:18:31;99.43;;;55.50;;
18677;SDS011;9469;51.114;13.914;2024-01-10T17:23:39;119.57;;;63.80;;
18677;SDS011;9469;51.114;13.914;2024-01-10T17:28:44;109.23;;;56.60;;
18677;SDS011;9469;51.114;13.914;2024-01-10T17:33:53;97.80;;;50.83;;
18677;SDS011;9469;51.114;13.914;2024-01-10T17:39:00;110.47;;;51.70;;
18677;SDS011;9469;51.114;13.914;2024-01-10T17:44:06;100.53;;;62.70;;
18677;SDS011;9469;51.114;13.914;2024-01-10T17:49:13;69.80;;;41.33;;
18677;SDS011;9469;51.114;13.914;2024-01-10T17:54:22;80.70;;;43.67;;
18677;SDS011;9469;51.114;13.914;2024-01-10T17:59:29;78.77;;;41.67;;
18677;SDS011;9469;51.114;13.914;2024-01-10T18:04:34;80.67;;;41.77;;
18677;SDS011;9469;51.114;13.914;2024-01-10T18:09:44;72.40;;;36.03;;
18677;SDS011;9469;51.114;13.914;2024-01-10T18:14:49;73.13;;;41.77;;
18677;SDS011;9469;51.114;13.914;2024-01-10T18:19:56;89.00;;;41.30;;
18677;SDS011;9469;51.114;13.914;2024-01-10T18:25:09;80.93;;;40.30;;
18677;SDS011;9469;51.114;13.914;2024-01-10T18:30:14;83.93;;;42.27;;
18677;SDS011;9469;51.114;13.914;2024-01-10T18:35:21;85.67;;;44.27;;
18677;SDS011;9469;51.114;13.914;2024-01-10T18:40:31;90.43;;;46.17;;
18677;SDS011;9469;51.114;13.914;2024-01-10T18:45:37;105.47;;;55.17;;
18677;SDS011;9469;51.114;13.914;2024-01-10T18:50:42;99.23;;;49.80;;
18677;SDS011;9469;51.114;13.914;2024-01-10T18:55:51;98.40;;;49.23;;
18677;SDS011;9469;51.114;13.914;2024-01-10T19:00:59;122.57;;;57.97;;
18677;SDS011;9469;51.114;13.914;2024-01-10T19:06:04;110.03;;;54.60;;
18677;SDS011;9469;51.114;13.914;2024-01-10T19:11:15;93.10;;;48.00;;
18677;SDS011;9469;51.114;13.914;2024-01-10T19:16:20;89.23;;;42.53;;
18677;SDS011;9469;51.114;13.914;2024-01-10T19:21:25;87.17;;;44.10;;
18677;SDS011;9469;51.114;13.914;2024-01-10T19:26:36;88.17;;;42.60;;
18677;SDS011;9469;51.114;13.914;2024-01-10T19:31:41;78.73;;;38.40;;
18677;SDS011;9469;51.114;13.914;2024-01-10T19:36:46;73.77;;;38.43;;
18677;SDS011;9469;51.114;13.914;2024-01-10T19:41:56;88.87;;;44.17;;
18677;SDS011;9469;51.114;13.914;2024-01-10T19:47:05;91.50;;;45.17;;
18677;SDS011;9469;51.114;13.914;2024-01-10T19:52:12;85.83;;;40.90;;
18677;SDS011;9469;51.114;13.914;2024-01-10T19:57:21;83.63;;;40.43;;
18677;SDS011;9469;51.114;13.914;2024-01-10T20:02:26;74.20;;;38.33;;
18677;SDS011;9469;51.114;13.914;2024-01-10T20:07:31;76.87;;;39.63;;
18677;SDS011;9469;51.114;13.914;2024-01-10T20:12:43;84.33;;;44.40;;
18677;SDS011;9469;51.114;13.914;2024-01-10T20:17:50;75.03;;;39.90;;
18677;SDS011;9469;51.114;13.914;2024-01-10T20:22:55;73.83;;;39.47;;
18677;SDS011;9469;51.114;13.914;2024-01-10T20:28:03;73.43;;;38.57;;
18677;SDS011;9469;51.114;13.914;2024-01-10T20:33:10;75.13;;;37.00;;
18677;SDS011;9469;51.114;13.914;2024-01-10T20:38:16;68.33;;;34.63;;
18677;SDS011;9469;51.114;13.914;2024-01-10T20:43:31;68.77;;;35.73;;
18677;SDS011;9469;51.114;13.914;2024-01-10T20:48:41;76.47;;;38.77;;
18677;SDS011;9469;51.114;13.914;2024-01-10T20:53:47;73.70;;;38.87;;
18677;SDS011;9469;51.114;13.914;2024-01-10T20:58:57;70.93;;;35.33;;
18677;SDS011;9469;51.114;13.914;2024-01-10T21:04:03;66.37;;;34.93;;
18677;SDS011;9469;51.114;13.914;2024-01-10T21:09:08;67.23;;;35.13;;
18677;SDS011;9469;51.114;13.914;2024-01-10T21:14:17;80.83;;;39.53;;
18677;SDS011;9469;51.114;13.914;2024-01-10T21:19:23;62.63;;;32.83;;
18677;SDS011;9469;51.114;13.914;2024-01-10T21:24:31;84.60;;;40.60;;
18677;SDS011;9469;51.114;13.914;2024-01-10T21:29:41;61.80;;;32.87;;
18677;SDS011;9469;51.114;13.914;2024-01-10T21:34:47;67.07;;;33.50;;
18677;SDS011;9469;51.114;13.914;2024-01-10T21:39:52;69.47;;;34.13;;
18677;SDS011;9469;51.114;13.914;2024-01-10T21:45:07;71.67;;;35.57;;
18677;SDS011;9469;51.114;13.914;2024-01-10T21:50:13;69.10;;;39.53;;
18677;SDS011;9469;51.114;13.914;2024-01-10T21:55:20;60.87;;;33.17;;
18677;SDS011;9469;51.114;13.914;2024-01-10T22:00:28;63.17;;;32.23;;
18677;SDS011;9469;51.114;13.914;2024-01-10T22:05:33;64.63;;;33.07;;
18677;SDS011;9469;51.114;13.914;2024-01-10T22:10:41;60.90;;;34.33;;
18677;SDS011;9469;51.114;13.914;2024-01-10T22:15:49;69.20;;;35.60;;
18677;SDS011;9469;51.114;13.914;2024-01-10T22:20:54;68.60;;;34.97;;
18677;SDS011;9469;51.114;13.914;2024-01-10T22:26:01;73.57;;;36.00;;
18677;SDS011;9469;51.114;13.914;2024-01-10T22:31:12;69.90;;;35.27;;
18677;SDS011;9469;51.114;13.914;2024-01-10T22:36:18;71.80;;;35.53;;
18677;SDS011;9469;51.114;13.914;2024-01-10T22:41:27;69.47;;;36.53;;
18677;SDS011;9469;51.114;13.914;2024-01-10T22:46:35;58.03;;;32.33;;
18677;SDS011;9469;51.114;13.914;2024-01-10T22:51:40;67.93;;;32.63;;
18677;SDS011;9469;51.114;13.914;2024-01-10T22:56:45;69.33;;;36.63;;
18677;SDS011;9469;51.114;13.914;2024-01-10T23:01:54;71.47;;;34.93;;
18677;SDS011;9469;51.114;13.914;2024-01-10T23:06:59;70.20;;;34.73;;
18677;SDS011;9469;51.114;13.914;2024-01-10T23:12:05;69.50;;;34.53;;
18677;SDS011;9469;51.114;13.914;2024-01-10T23:17:13;61.90;;;33.40;;
18677;SDS011;9469;51.114;13.914;2024-01-10T23:22:22;65.43;;;32.23;;
18677;SDS011;9469;51.114;13.914;2024-01-10T23:27:27;57.77;;;30.00;;
18677;SDS011;9469;51.114;13.914;2024-01-10T23:32:35;66.00;;;33.27;;
18677;SDS011;9469;51.114;13.914;2024-01-10T23:37:44;68.13;;;32.60;;
18677;SDS011;9469;51.114;13.914;2024-01-10T23:42:49;66.07;;;32.00;;
18677;SDS011;9469;51.114;13.914;2024-01-10T23:48:00;68.57;;;32.80;;
18677;SDS011;9469;51.114;13.914;2024-01-10T23:53:06;61.50;;;33.17;;
18677;SDS011;9469;51.114;13.914;2024-01-10T23:58:13;56.17;;;29.93;;
